Time;durP1;ratioP1;P1;durP2;ratioP2;P2;SDS_P1;SDS_P2;PMS_P1;PMS_P2;Temp;Humidity;BMP_temperature;BMP_pressure;BME280_temperature;BME280_humidity;BME280_pressure;Samples;Min_cycle;Max_cycle;Signal;HPM_P1;HPM_P2
2023/11/14 00:00:37;;;;;;;35.45;4.57;;;;;;;9.64;100.00;96710.56;5030855;28;20456;-82
2023/11/14 00:03:05;;;;;;;29.92;4.50;;;;;;;9.60;100.00;96698.94;5029753;28;20416;-82
2023/11/14 00:05:34;;;;;;;27.63;4.13;;;;;;;9.59;100.00;96702.63;5029639;28;20486;-82
2023/11/14 00:08:01;;;;;;;28.92;4.60;;;;;;;9.59;100.00;96697.34;5030110;28;20397;-80
2023/11/14 00:10:27;;;;;;;31.42;4.15;;;;;;;9.55;100.00;96704.19;5029104;28;20459;-80
2023/11/14 00:12:55;;;;;;;27.02;4.30;;;;;;;9.53;100.00;96695.75;5030058;28;20396;-82
2023/11/14 00:15:21;;;;;;;23.17;4.03;;;;;;;9.50;100.00;96691.78;5028614;28;20980;-81
2023/11/14 00:17:48;;;;;;;30.88;3.85;;;;;;;9.50;100.00;96685.69;5029654;28;20645;-81
2023/11/14 00:20:15;;;;;;;37.03;4.30;;;;;;;9.45;100.00;96678.56;5028434;28;20606;-83
2023/11/14 00:22:41;;;;;;;18.48;4.00;;;;;;;9.45;100.00;96693.63;5028106;28;20471;-83
2023/11/14 00:25:08;;;;;;;34.63;4.72;;;;;;;9.40;100.00;96696.25;5029271;28;20397;-81
2023/11/14 00:27:34;;;;;;;30.58;3.80;;;;;;;9.41;100.00;96711.81;5027900;28;20451;-82
2023/11/14 00:30:02;;;;;;;26.07;3.73;;;;;;;9.43;100.00;96707.09;5027073;28;20420;-81
2023/11/14 00:32:28;;;;;;;30.10;3.65;;;;;;;9.41;100.00;96693.34;5026430;28;20397;-81
2023/11/14 00:34:54;;;;;;;18.40;3.28;;;;;;;9.40;100.00;96693.63;5023594;28;20401;-81
2023/11/14 00:37:21;;;;;;;26.40;3.17;;;;;;;9.36;100.00;96697.81;5021627;28;20419;-81
2023/11/14 00:39:47;;;;;;;30.70;4.13;;;;;;;9.27;100.00;96697.53;5021063;28;20401;-80
2023/11/14 00:42:13;;;;;;;21.50;3.30;;;;;;;9.28;100.00;96709.66;5021489;28;20411;-82
2023/11/14 00:44:39;;;;;;;22.10;3.53;;;;;;;9.27;100.00;96711.53;5020948;28;20416;-80
2023/11/14 00:47:07;;;;;;;21.08;3.28;;;;;;;9.28;100.00;96713.13;5021943;28;20523;-81
2023/11/14 00:49:33;;;;;;;35.28;4.82;;;;;;;9.23;100.00;96704.38;5021438;28;20421;-82
2023/11/14 00:51:59;;;;;;;16.77;3.67;;;;;;;9.22;100.00;96705.44;5020349;28;20516;-81
2023/11/14 00:54:26;;;;;;;18.35;2.70;;;;;;;9.19;100.00;96709.38;5021233;28;20404;-80
2023/11/14 00:56:52;;;;;;;22.30;3.70;;;;;;;9.17;100.00;96708.84;5020453;28;20432;-80
2023/11/14 00:59:19;;;;;;;30.92;3.78;;;;;;;9.12;100.00;96715.94;5021200;28;20408;-80
2023/11/14 01:01:45;;;;;;;12.10;2.70;;;;;;;9.09;100.00;96716.47;5024378;28;20405;-79
2023/11/14 01:04:12;;;;;;;22.23;3.95;;;;;;;9.06;100.00;96716.97;5025615;28;20397;-79
2023/11/14 01:06:39;;;;;;;43.83;5.10;;;;;;;8.96;100.00;96709.00;5020980;28;20462;-80
2023/11/14 01:09:05;;;;;;;34.20;4.60;;;;;;;8.98;100.00;96720.09;5019813;28;20463;-82
2023/11/14 01:11:32;;;;;;;25.73;3.78;;;;;;;8.96;100.00;96740.69;5020705;28;20408;-78
2023/11/14 01:13:58;;;;;;;16.60;3.08;;;;;;;8.95;100.00;96739.88;5019898;28;20404;-81
2023/11/14 01:16:25;;;;;;;13.05;2.60;;;;;;;8.95;100.00;96737.25;5021197;28;20420;-81
2023/11/14 01:18:51;;;;;;;10.68;2.75;;;;;;;8.93;100.00;96723.53;5020632;28;20412;-78
2023/11/14 01:21:19;;;;;;;18.98;3.22;;;;;;;8.91;100.00;96742.25;5021688;28;20405;-79
2023/11/14 01:23:45;;;;;;;20.10;3.38;;;;;;;8.86;100.00;96744.06;5021764;28;20396;-80
2023/11/14 01:26:11;;;;;;;28.80;3.95;;;;;;;8.90;100.00;96750.41;5022192;28;20409;-80
2023/11/14 01:28:38;;;;;;;14.45;3.08;;;;;;;8.96;100.00;96751.22;5022135;28;20893;-80
2023/11/14 01:31:04;;;;;;;12.27;2.85;;;;;;;8.98;100.00;96760.50;5021908;28;20400;-80
2023/11/14 01:33:30;;;;;;;17.55;2.95;;;;;;;8.98;100.00;96764.97;5021853;28;20397;-79
2023/11/14 01:35:57;;;;;;;23.70;3.97;;;;;;;8.95;100.00;96768.16;5021925;28;20428;-80
2023/11/14 01:38:24;;;;;;;17.23;3.38;;;;;;;8.95;100.00;96771.56;5022638;28;20412;-79
2023/11/14 01:40:51;;;;;;;44.78;4.10;;;;;;;8.89;100.00;96760.19;5022002;28;20413;-80
2023/11/14 01:43:17;;;;;;;15.05;3.15;;;;;;;8.89;100.00;96754.09;5024561;28;20892;-81
2023/11/14 01:45:44;;;;;;;24.95;3.65;;;;;;;8.88;100.00;96776.25;5026846;28;20422;-80
2023/11/14 01:48:12;;;;;;;23.20;5.27;;;;;;;8.85;100.00;96761.75;5028331;28;20491;-81
2023/11/14 01:50:38;;;;;;;19.23;3.35;;;;;;;8.87;100.00;96772.06;5027611;28;20403;-80
2023/11/14 01:53:07;;;;;;;25.85;4.03;;;;;;;8.87;100.00;96761.50;5024643;28;20769;-80
2023/11/14 01:55:36;;;;;;;17.15;3.55;;;;;;;8.85;100.00;96777.59;5025040;28;20397;-82
2023/11/14 01:58:03;;;;;;;12.23;3.03;;;;;;;8.85;100.00;96777.59;5025443;28;20503;-82
2023/11/14 02:00:30;;;;;;;12.95;2.67;;;;;;;8.81;100.00;96787.03;5025407;28;20407;-82
2023/11/14 02:02:57;;;;;;;17.05;2.92;;;;;;;8.78;100.00;96784.94;5028914;28;20450;-82
2023/11/14 02:05:26;;;;;;;15.65;2.85;;;;;;;8.77;100.00;96769.34;5026211;28;20912;-81
2023/11/14 02:07:52;;;;;;;13.75;3.08;;;;;;;8.77;100.00;96761.44;5025510;28;20740;-82
2023/11/14 02:10:18;;;;;;;17.02;3.00;;;;;;;8.76;100.00;96759.84;5026624;28;20421;-81
2023/11/14 02:12:46;;;;;;;33.23;4.60;;;;;;;8.68;100.00;96763.75;5025209;28;20393;-81
2023/11/14 02:15:12;;;;;;;16.67;3.20;;;;;;;8.72;100.00;96748.22;5026308;28;20409;-81
2023/11/14 02:17:43;;;;;;;36.33;4.28;;;;;;;8.71;100.00;96762.44;5025009;28;20404;-81
2023/11/14 02:20:10;;;;;;;19.45;3.15;;;;;;;8.71;100.00;96760.63;5026097;28;20405;-81
2023/11/14 02:22:37;;;;;;;29.70;4.00;;;;;;;8.69;100.00;96757.44;5026282;28;20469;-82
2023/11/14 02:25:07;;;;;;;21.70;3.47;;;;;;;8.67;100.00;96761.34;5025169;28;20464;-81
2023/11/14 02:27:35;;;;;;;40.60;4.55;;;;;;;8.63;100.00;96763.72;5025608;28;20400;-81
2023/11/14 02:30:02;;;;;;;17.23;3.20;;;;;;;8.66;100.00;96778.22;5027658;28;20430;-81
2023/11/14 02:32:30;;;;;;;7.83;2.60;;;;;;;8.65;100.00;96776.63;5026527;28;20444;-81
2023/11/14 02:34:57;;;;;;;28.25;4.50;;;;;;;8.61;100.00;96779.00;5025462;28;20409;-81
2023/11/14 02:37:24;;;;;;;22.30;3.58;;;;;;;8.60;100.00;96774.78;5026015;28;20408;-80
2023/11/14 02:39:50;;;;;;;15.63;3.13;;;;;;;8.62;100.00;96780.59;5025437;28;20401;-81
2023/11/14 02:42:18;;;;;;;39.13;4.95;;;;;;;8.56;100.00;96767.63;5025295;28;20404;-81
2023/11/14 02:44:46;;;;;;;24.20;4.20;;;;;;;8.57;100.00;96771.84;5023754;28;21269;-81
2023/11/14 02:47:12;;;;;;;18.35;2.90;;;;;;;8.58;100.00;96771.56;5025766;28;20396;-81
2023/11/14 02:49:54;;;;;;;7.45;2.33;;;;;;;8.57;100.00;96769.97;5025680;28;20420;-82
2023/11/14 02:52:20;;;;;;;20.15;3.13;;;;;;;8.50;100.00;96756.22;5025731;28;20401;-81
2023/11/14 02:54:46;;;;;;;22.80;3.30;;;;;;;8.48;100.00;96751.22;5022070;28;20801;-80
2023/11/14 02:57:12;;;;;;;27.80;3.75;;;;;;;8.43;100.00;96737.19;5019995;28;20396;-82
2023/11/14 02:59:40;;;;;;;17.73;3.20;;;;;;;8.37;100.00;96743.47;5020087;28;21020;-80
2023/11/14 03:02:06;;;;;;;9.23;2.55;;;;;;;8.31;100.00;96739.22;5022334;28;20405;-80
2023/11/14 03:04:32;;;;;;;7.13;2.50;;;;;;;8.23;100.00;96748.34;5022336;28;20409;-79
2023/11/14 03:07:00;;;;;;;15.20;3.10;;;;;;;8.19;100.00;96765.72;5021079;28;20477;-80
2023/11/14 03:09:26;;;;;;;10.97;2.87;;;;;;;8.13;100.00;96775.41;5019306;28;20501;-82
2023/11/14 03:11:52;;;;;;;18.42;3.40;;;;;;;8.06;100.00;96782.72;5020039;28;20404;-81
2023/11/14 03:14:19;;;;;;;32.83;4.20;;;;;;;8.01;100.00;96790.59;5020032;28;20402;-80
2023/11/14 03:16:48;;;;;;;11.80;3.72;;;;;;;7.99;100.00;96811.13;5023825;28;20464;-80
2023/11/14 03:19:14;;;;;;;10.73;3.10;;;;;;;7.98;100.00;96819.25;5024213;28;20866;-80
2023/11/14 03:21:44;;;;;;;15.13;2.93;;;;;;;7.92;100.00;96807.09;5023923;28;20415;-80
2023/11/14 03:24:11;;;;;;;9.45;2.90;;;;;;;7.88;100.00;96812.06;5023192;28;20392;-81
2023/11/14 03:26:37;;;;;;;9.25;2.53;;;;;;;7.84;100.00;96813.59;5023685;28;20411;-80
2023/11/14 03:29:03;;;;;;;13.03;2.80;;;;;;;7.81;100.00;96802.78;5023541;28;20419;-80
2023/11/14 03:31:30;;;;;;;8.80;2.50;;;;;;;7.79;100.00;96813.53;5023713;28;20401;-80
2023/11/14 03:33:57;;;;;;;20.40;3.83;;;;;;;7.81;100.00;96811.47;5023527;28;20435;-80
2023/11/14 03:36:23;;;;;;;11.53;3.13;;;;;;;7.80;100.00;96795.91;5022747;28;20431;-80
2023/11/14 03:38:49;;;;;;;8.60;3.10;;;;;;;7.76;100.00;96803.50;5023270;28;20405;-81
2023/11/14 03:41:15;;;;;;;8.93;3.00;;;;;;;7.71;100.00;96806.06;5023020;28;20431;-80
2023/11/14 03:43:42;;;;;;;11.05;3.03;;;;;;;7.68;100.00;96825.78;5022945;28;20401;-80
2023/11/14 03:46:08;;;;;;;28.07;5.40;;;;;;;7.68;100.00;96836.34;5023683;28;20399;-81
2023/11/14 03:48:34;;;;;;;10.95;3.58;;;;;;;7.63;100.00;96831.03;5023111;28;20491;-80
2023/11/14 03:51:03;;;;;;;17.07;3.90;;;;;;;7.63;100.00;96851.28;5023804;28;20401;-81
2023/11/14 03:53:29;;;;;;;8.07;3.15;;;;;;;7.63;100.00;96861.81;5023118;28;20455;-80
2023/11/14 03:55:55;;;;;;;7.97;3.35;;;;;;;7.62;100.00;96860.22;5022245;28;20475;-81
2023/11/14 03:58:21;;;;;;;8.77;3.05;;;;;;;7.61;100.00;96854.16;5022956;28;20628;-80
2023/11/14 04:00:47;;;;;;;9.77;3.20;;;;;;;7.60;100.00;96867.56;5022556;28;20408;-80
2023/11/14 04:03:13;;;;;;;25.02;5.25;;;;;;;7.57;100.00;96865.44;5022744;28;20401;-80
2023/11/14 04:05:40;;;;;;;24.30;4.93;;;;;;;7.54;100.00;96874.63;5022414;28;20413;-81
2023/11/14 04:08:07;;;;;;;16.17;4.53;;;;;;;7.54;100.00;96858.81;5022416;28;20397;-80
2023/11/14 04:10:33;;;;;;;13.77;3.80;;;;;;;7.53;100.00;96845.88;5022612;28;20420;-80
2023/11/14 04:13:00;;;;;;;10.07;3.50;;;;;;;7.51;100.00;96853.25;5022114;28;20430;-80
2023/11/14 04:15:26;;;;;;;13.30;4.18;;;;;;;7.49;100.00;96861.41;5022249;28;20401;-80
2023/11/14 04:17:52;;;;;;;10.65;3.63;;;;;;;7.50;100.00;96862.19;5022346;28;20412;-81
2023/11/14 04:20:18;;;;;;;11.45;3.90;;;;;;;7.49;100.00;96879.03;5023035;28;20401;-80
2023/11/14 04:22:44;;;;;;;8.45;3.55;;;;;;;7.47;100.00;96876.63;5026886;28;20434;-80
2023/11/14 04:25:12;;;;;;;9.80;3.63;;;;;;;7.43;100.00;96872.09;5025218;28;20401;-80
2023/11/14 04:27:38;;;;;;;18.73;4.80;;;;;;;7.41;100.00;96861.81;5022697;28;20447;-80
2023/11/14 04:30:05;;;;;;;20.63;4.82;;;;;;;7.38;100.00;96857.81;5021841;28;20413;-81
2023/11/14 04:32:31;;;;;;;12.18;4.20;;;;;;;7.35;100.00;96853.06;5022090;28;20432;-80
2023/11/14 04:34:57;;;;;;;14.75;4.07;;;;;;;7.35;100.00;96852.25;5022195;28;20516;-81
2023/11/14 04:37:23;;;;;;;12.10;3.80;;;;;;;7.33;100.00;96856.97;5021093;28;20400;-80
2023/11/14 04:39:50;;;;;;;15.82;4.43;;;;;;;7.32;100.00;96864.06;5022742;28;20405;-81
2023/11/14 04:42:17;;;;;;;9.57;3.97;;;;;;;7.28;100.00;96865.59;5022224;28;20523;-81
2023/11/14 04:44:43;;;;;;;13.35;4.10;;;;;;;7.28;100.00;96870.88;5022067;28;20396;-81
2023/11/14 04:47:10;;;;;;;17.73;4.97;;;;;;;7.25;100.00;96865.28;5021946;28;20403;-81
2023/11/14 04:49:36;;;;;;;16.08;4.78;;;;;;;7.24;100.00;96866.31;5021745;28;20459;-81
2023/11/14 04:52:03;;;;;;;20.75;5.30;;;;;;;7.22;100.00;96855.22;5021637;28;20404;-80
2023/11/14 04:54:29;;;;;;;14.02;4.70;;;;;;;7.18;100.00;96862.00;5021358;28;20401;-80
2023/11/14 04:56:55;;;;;;;9.35;4.32;;;;;;;7.14;100.00;96869.59;5021118;28;20404;-80
2023/11/14 04:59:22;;;;;;;17.83;5.53;;;;;;;7.15;100.00;96859.84;5024955;28;20409;-80
2023/11/14 05:01:48;;;;;;;13.52;4.53;;;;;;;7.13;100.00;96859.31;5019554;28;20405;-80
2023/11/14 05:04:15;;;;;;;13.75;4.90;;;;;;;7.12;100.00;96861.16;5020393;28;20397;-81
2023/11/14 05:06:41;;;;;;;11.45;4.63;;;;;;;7.11;100.00;96874.56;5020547;28;20448;-81
2023/11/14 05:09:07;;;;;;;17.70;6.38;;;;;;;7.10;100.00;96886.09;5020911;28;20416;-79
2023/11/14 05:11:37;;;;;;;17.58;5.72;;;;;;;7.10;100.00;96884.28;5021180;28;20420;-79
2023/11/14 05:14:05;;;;;;;13.88;5.05;;;;;;;7.10;100.00;96894.81;5020358;28;20536;-80
2023/11/14 05:16:38;;;;;;;15.20;4.95;;;;;;;7.10;100.00;96889.53;5018257;28;20401;-80
2023/11/14 05:19:05;;;;;;;24.70;7.32;;;;;;;7.10;100.00;96884.28;5020351;28;20401;-79
2023/11/14 05:21:31;;;;;;;20.03;5.97;;;;;;;7.12;100.00;96891.94;5020773;28;20750;-80
2023/11/14 05:23:57;;;;;;;15.30;5.47;;;;;;;7.14;100.00;96882.75;5020235;28;20413;-79
2023/11/14 05:26:23;;;;;;;9.97;5.20;;;;;;;7.17;100.00;96881.47;5020274;28;20409;-80
2023/11/14 05:28:49;;;;;;;12.60;5.20;;;;;;;7.19;100.00;96882.84;5019428;28;20416;-81
2023/11/14 05:31:15;;;;;;;11.98;5.18;;;;;;;7.19;100.00;96880.22;5018871;28;20397;-79
2023/11/14 05:33:44;;;;;;;10.50;5.03;;;;;;;7.19;100.00;96880.22;5019586;28;20408;-80
2023/11/14 05:36:11;;;;;;;10.10;4.80;;;;;;;7.17;100.00;96889.38;5019643;28;20401;-81
2023/11/14 05:38:38;;;;;;;17.55;5.40;;;;;;;7.16;100.00;96900.94;5021161;28;20397;-81
2023/11/14 05:41:04;;;;;;;12.83;5.23;;;;;;;7.15;100.00;96909.88;5020997;28;20412;-81
2023/11/14 05:43:31;;;;;;;11.82;5.32;;;;;;;7.13;100.00;96904.06;5019156;28;20404;-80
2023/11/14 05:45:57;;;;;;;25.90;6.55;;;;;;;7.10;100.00;96907.16;5018279;28;20947;-83
2023/11/14 05:48:24;;;;;;;12.32;5.55;;;;;;;7.07;100.00;96911.06;5017305;28;20401;-82
2023/11/14 05:50:51;;;;;;;16.42;5.95;;;;;;;7.02;100.00;96903.09;5016155;28;20413;-82
2023/11/14 05:53:17;;;;;;;11.35;5.20;;;;;;;7.00;100.00;96895.44;5017228;28;20412;-84
2023/11/14 05:55:44;;;;;;;15.52;5.30;;;;;;;6.97;100.00;96893.31;5018812;28;20418;-82
2023/11/14 05:58:10;;;;;;;11.65;4.60;;;;;;;6.94;100.00;96890.34;5018318;28;20459;-82
2023/11/14 06:00:37;;;;;;;10.40;4.43;;;;;;;6.93;100.00;96886.13;5017777;28;20405;-80
2023/11/14 06:03:03;;;;;;;18.27;6.00;;;;;;;6.96;100.00;96901.44;5015829;28;20930;-83
2023/11/14 06:05:29;;;;;;;21.88;6.25;;;;;;;6.96;100.00;96898.81;5017209;28;20412;-81
2023/11/14 06:07:57;;;;;;;16.70;5.67;;;;;;;6.97;100.00;96908.28;5017196;28;20400;-82
2023/11/14 06:10:23;;;;;;;11.23;4.67;;;;;;;6.97;100.00;96905.66;5018515;28;20602;-82
2023/11/14 06:12:49;;;;;;;11.25;5.35;;;;;;;6.99;100.00;96898.34;5017821;28;20739;-81
2023/11/14 06:15:16;;;;;;;13.90;5.20;;;;;;;6.98;100.00;96897.53;5015989;28;20468;-82
2023/11/14 06:17:42;;;;;;;10.18;4.88;;;;;;;6.99;100.00;96891.22;5016418;28;20408;-82
2023/11/14 06:20:09;;;;;;;14.10;5.00;;;;;;;6.99;100.00;96879.91;5015060;28;20511;-82
2023/11/14 06:22:36;;;;;;;13.50;4.97;;;;;;;6.97;100.00;96895.13;5015706;28;20408;-82
2023/11/14 06:25:04;;;;;;;13.55;4.97;;;;;;;6.95;100.00;96881.41;5018394;28;20869;-84
2023/11/14 06:27:30;;;;;;;16.08;5.20;;;;;;;6.91;100.00;96883.75;5018293;28;20400;-82
2023/11/14 06:29:56;;;;;;;13.02;4.88;;;;;;;6.87;100.00;96898.41;5020317;28;20429;-82
2023/11/14 06:32:22;;;;;;;21.55;6.43;;;;;;;6.86;100.00;96890.75;5020724;28;20415;-80
2023/11/14 06:34:49;;;;;;;16.63;5.38;;;;;;;6.85;100.00;96886.50;5020542;28;20420;-81
2023/11/14 06:37:16;;;;;;;12.95;4.72;;;;;;;6.83;100.00;96891.22;5019485;28;20912;-81
2023/11/14 06:39:42;;;;;;;8.20;4.55;;;;;;;6.81;100.00;96894.09;5019648;28;20412;-82
2023/11/14 06:42:10;;;;;;;14.75;4.18;;;;;;;6.79;100.00;96904.06;5019138;28;20777;-83
2023/11/14 06:44:36;;;;;;;9.15;3.83;;;;;;;6.77;100.00;96902.69;5022547;28;20385;-83
2023/11/14 06:47:03;;;;;;;12.13;4.55;;;;;;;6.76;100.00;96915.06;5021639;28;20419;-82
2023/11/14 06:49:29;;;;;;;9.18;4.15;;;;;;;6.75;100.00;96924.00;5019701;28;20424;-81
2023/11/14 06:51:55;;;;;;;10.40;4.22;;;;;;;6.76;100.00;96919.53;5023709;28;20405;-82
2023/11/14 06:54:21;;;;;;;10.25;4.30;;;;;;;6.77;100.00;96915.84;5022695;28;20425;-83
2023/11/14 06:56:47;;;;;;;11.05;4.63;;;;;;;6.78;100.00;96915.59;5023729;28;20397;-81
2023/11/14 06:59:15;;;;;;;11.98;4.93;;;;;;;6.80;100.00;96923.25;5023223;28;20423;-81
2023/11/14 07:01:41;;;;;;;13.40;4.70;;;;;;;6.81;100.00;96938.03;5021522;28;20400;-83
2023/11/14 07:04:11;;;;;;;18.98;5.15;;;;;;;6.80;100.00;96926.69;5023060;28;20401;-82
2023/11/14 07:06:37;;;;;;;9.55;4.63;;;;;;;6.82;100.00;96923.84;5023606;28;20397;-82
2023/11/14 07:09:04;;;;;;;13.67;4.37;;;;;;;6.85;100.00;96931.22;5023320;28;20832;-82
2023/11/14 07:11:30;;;;;;;12.35;4.68;;;;;;;6.89;100.00;96942.88;5023216;28;20428;-83
2023/11/14 07:13:56;;;;;;;17.50;5.20;;;;;;;6.91;100.00;96951.34;5022454;28;20443;-83
2023/11/14 07:16:23;;;;;;;16.70;5.20;;;;;;;6.94;100.00;96953.50;5022886;28;20404;-82
2023/11/14 07:18:49;;;;;;;10.82;5.10;;;;;;;6.97;100.00;96963.56;5023729;28;20920;-82
2023/11/14 07:21:16;;;;;;;15.52;5.28;;;;;;;6.97;100.00;96974.88;5022923;28;20393;-83
2023/11/14 07:23:42;;;;;;;15.45;4.78;;;;;;;6.99;100.00;96982.53;5022650;28;20401;-82
2023/11/14 07:26:10;;;;;;;17.05;5.38;;;;;;;7.03;100.00;96961.78;5022795;28;20401;-82
2023/11/14 07:28:37;;;;;;;20.70;6.40;;;;;;;7.10;100.00;96959.81;5023030;28;20842;-82
2023/11/14 07:31:03;;;;;;;14.57;5.65;;;;;;;7.24;100.00;96940.81;5026004;28;20436;-82
2023/11/14 07:33:30;;;;;;;8.77;4.63;;;;;;;7.37;100.00;96935.22;5023032;28;20449;-83
2023/11/14 07:35:57;;;;;;;13.70;5.00;;;;;;;7.52;100.00;96931.22;5023191;28;20405;-82
2023/11/14 07:38:23;;;;;;;17.27;5.50;;;;;;;7.62;100.00;96939.25;5023408;28;20407;-82
2023/11/14 07:40:49;;;;;;;9.37;4.40;;;;;;;7.80;100.00;96957.41;5023190;28;20401;-83
2023/11/14 07:43:17;;;;;;;15.02;4.88;;;;;;;7.91;100.00;96950.44;5024245;28;20397;-82
2023/11/14 07:45:44;;;;;;;11.02;4.07;;;;;;;7.99;100.00;96963.19;5022966;28;20408;-82
2023/11/14 07:48:10;;;;;;;22.60;5.15;;;;;;;7.95;100.00;96956.81;5023469;28;20440;-83
2023/11/14 07:50:37;;;;;;;12.23;4.60;;;;;;;7.98;100.00;96967.66;5022661;28;20417;-82
2023/11/14 07:53:04;;;;;;;11.77;4.55;;;;;;;7.98;100.00;96977.41;5024499;28;20431;-82
2023/11/14 07:55:30;;;;;;;16.08;4.45;;;;;;;7.96;100.00;96980.31;5024484;28;20424;-82
2023/11/14 07:57:56;;;;;;;14.43;3.97;;;;;;;8.00;100.00;96976.13;5023729;28;20397;-84
2023/11/14 08:00:24;;;;;;;13.73;3.88;;;;;;;8.04;100.00;96952.72;5022927;28;20432;-82
2023/11/14 08:02:50;;;;;;;13.45;4.00;;;;;;;8.08;100.00;96954.63;5023268;28;20408;-83
2023/11/14 08:05:16;;;;;;;9.17;3.13;;;;;;;8.16;100.00;96974.47;5022368;28;20433;-83
2023/11/14 08:07:43;;;;;;;13.38;3.13;;;;;;;8.23;100.00;96969.81;5022820;28;20401;-82
2023/11/14 08:10:10;;;;;;;12.68;3.40;;;;;;;8.19;100.00;96949.47;5021902;28;20421;-83
2023/11/14 08:12:36;;;;;;;11.67;3.37;;;;;;;8.22;100.00;96970.06;5022582;28;20393;-83
2023/11/14 08:15:03;;;;;;;7.23;2.60;;;;;;;8.39;100.00;96984.00;5022275;28;20400;-82
2023/11/14 08:17:29;;;;;;;14.40;3.10;;;;;;;8.38;100.00;96991.13;5022887;28;20447;-82
2023/11/14 08:19:55;;;;;;;6.30;2.35;;;;;;;8.56;100.00;96982.09;5023333;28;20397;-82
2023/11/14 08:22:23;;;;;;;6.77;2.20;;;;;;;8.71;100.00;96974.34;5023044;28;20451;-83
2023/11/14 08:24:50;;;;;;;10.00;2.15;;;;;;;8.80;100.00;96998.41;5022317;28;20401;-82
2023/11/14 08:27:17;;;;;;;5.82;2.00;;;;;;;8.86;100.00;97006.16;5023173;28;20397;-82
2023/11/14 08:29:43;;;;;;;7.32;2.20;;;;;;;8.91;100.00;97018.59;5022110;28;20428;-82
2023/11/14 08:32:09;;;;;;;7.88;2.30;;;;;;;8.85;100.00;97007.19;5023509;28;20817;-80
2023/11/14 08:34:35;;;;;;;7.68;2.38;;;;;;;8.85;100.00;97007.19;5023472;28;20451;-83
2023/11/14 08:37:03;;;;;;;8.00;2.10;;;;;;;8.84;100.00;97002.97;5025374;28;20404;-83
2023/11/14 08:39:29;;;;;;;12.25;2.50;;;;;;;8.69;100.00;96988.81;5022156;28;20400;-82
2023/11/14 08:41:57;;;;;;;13.57;2.10;;;;;;;8.73;100.00;96982.78;5021433;28;20401;-83
2023/11/14 08:44:23;;;;;;;8.82;2.30;;;;;;;8.67;100.00;96970.59;5022028;28;20411;-82
2023/11/14 08:46:50;;;;;;;4.63;1.90;;;;;;;8.76;100.00;96979.66;5022189;28;20403;-83
2023/11/14 08:49:16;;;;;;;8.27;1.70;;;;;;;8.81;100.00;96984.97;5021607;28;21033;-81
2023/11/14 08:51:43;;;;;;;14.53;2.20;;;;;;;8.71;100.00;96979.63;5021307;28;20433;-82
2023/11/14 08:54:09;;;;;;;6.20;1.70;;;;;;;8.80;100.00;96964.09;5022037;28;20397;-83
2023/11/14 08:56:35;;;;;;;11.65;2.67;;;;;;;8.69;100.00;96965.06;5022247;28;20424;-83
2023/11/14 08:59:02;;;;;;;8.10;2.00;;;;;;;8.87;100.00;96968.13;5019084;28;20480;-82
2023/11/14 09:01:28;;;;;;;6.80;1.90;;;;;;;9.01;100.00;96978.31;5018357;28;20443;-84
2023/11/14 09:03:55;;;;;;;10.23;2.22;;;;;;;9.13;100.00;96977.09;5018022;28;20801;-81
2023/11/14 09:06:21;;;;;;;5.50;2.17;;;;;;;9.22;100.00;96988.00;5015987;28;20401;-83
2023/11/14 09:08:47;;;;;;;3.70;1.98;;;;;;;9.19;100.00;96996.41;5025939;28;20429;-84
2023/11/14 09:11:13;;;;;;;7.95;1.85;;;;;;;9.12;100.00;96995.81;5021848;28;20476;-84
2023/11/14 09:13:40;;;;;;;5.85;1.80;;;;;;;9.06;100.00;96994.19;5019400;28;20427;-82
2023/11/14 09:16:09;;;;;;;4.53;1.60;;;;;;;9.09;100.00;96993.69;5021773;28;20432;-83
2023/11/14 09:18:37;;;;;;;8.55;1.73;;;;;;;8.91;100.00;96981.66;5022397;28;20393;-84
2023/11/14 09:21:03;;;;;;;6.85;1.60;;;;;;;8.98;100.00;96961.13;5021004;28;20415;-84
2023/11/14 09:23:31;;;;;;;7.38;1.80;;;;;;;9.01;100.00;96941.34;5020966;28;20401;-85
2023/11/14 09:25:57;;;;;;;7.20;1.50;;;;;;;9.16;100.00;96936.19;5021477;28;20753;-84
2023/11/14 09:28:23;;;;;;;4.95;1.50;;;;;;;9.21;100.00;96934.38;5021304;28;20503;-84
2023/11/14 09:30:49;;;;;;;3.85;1.60;;;;;;;9.27;100.00;96956.31;5020673;28;20417;-83
2023/11/14 09:33:16;;;;;;;4.85;1.90;;;;;;;9.29;100.00;96968.25;5020346;28;20881;-83
2023/11/14 09:35:43;;;;;;;7.60;1.63;;;;;;;9.29;100.00;96970.09;5020190;28;20456;-83
2023/11/14 09:38:09;;;;;;;2.25;1.42;;;;;;;9.37;100.00;96968.81;5020659;28;20884;-84
2023/11/14 09:40:35;;;;;;;11.00;1.80;;;;;;;9.26;100.00;96974.03;5020397;28;20397;-84
2023/11/14 09:43:03;;;;;;;7.35;1.65;;;;;;;9.33;100.00;96985.16;5020235;28;20523;-83
2023/11/14 09:45:30;;;;;;;2.17;1.50;;;;;;;9.40;100.00;96995.50;5020408;28;20429;-83
2023/11/14 09:47:56;;;;;;;8.20;1.52;;;;;;;9.40;100.00;96998.16;5019856;28;20776;-83
2023/11/14 09:50:23;;;;;;;13.07;2.08;;;;;;;9.28;100.00;97003.63;5020394;28;20413;-82
2023/11/14 09:52:50;;;;;;;4.63;1.58;;;;;;;9.29;100.00;96983.28;5019829;28;20405;-82
2023/11/14 09:55:17;;;;;;;4.88;1.35;;;;;;;9.29;100.00;96970.88;5019535;28;20889;-83
2023/11/14 09:57:47;;;;;;;7.03;1.70;;;;;;;9.12;100.00;96979.97;5018679;28;20404;-83
2023/11/14 10:00:15;;;;;;;7.75;1.90;;;;;;;9.08;100.00;96977.06;5025731;28;20413;-83
2023/11/14 10:02:41;;;;;;;5.05;1.70;;;;;;;9.14;100.00;96968.13;5019939;28;20518;-83
2023/11/14 10:05:08;;;;;;;7.68;1.80;;;;;;;9.17;100.00;96977.41;5020977;28;20910;-83
2023/11/14 10:07:36;;;;;;;3.35;1.30;;;;;;;9.22;100.00;96986.16;5019973;28;20412;-82
2023/11/14 10:10:05;;;;;;;4.18;1.52;;;;;;;9.21;100.00;96996.97;5019231;28;20444;-82
2023/11/14 10:12:34;;;;;;;8.73;1.90;;;;;;;9.12;100.00;96972.84;5019786;28;20401;-83
2023/11/14 10:15:01;;;;;;;4.47;1.60;;;;;;;9.21;100.00;96978.47;5019761;28;20436;-83
2023/11/14 10:17:38;;;;;;;7.18;1.70;;;;;;;9.24;100.00;96976.13;5020234;28;20723;-82
2023/11/14 10:20:08;;;;;;;4.82;1.60;;;;;;;9.21;100.00;96983.75;5019712;28;20407;-83
2023/11/14 10:22:45;;;;;;;7.47;1.63;;;;;;;9.17;100.00;96969.47;5020203;28;20443;-84
2023/11/14 10:25:24;;;;;;;4.97;1.60;;;;;;;9.15;100.00;96969.72;5021059;28;20400;-82
2023/11/14 10:27:59;;;;;;;5.35;1.58;;;;;;;9.13;100.00;96953.31;5025562;28;20393;-83
2023/11/14 10:30:43;;;;;;;9.60;1.80;;;;;;;9.08;100.00;96949.84;5023915;28;20432;-82
2023/11/14 10:33:10;;;;;;;8.90;1.90;;;;;;;9.17;100.00;96945.72;5025075;28;20415;-84
2023/11/14 10:35:36;;;;;;;3.70;1.40;;;;;;;9.30;100.00;96948.72;5024084;28;20404;-83
2023/11/14 10:38:16;;;;;;;7.47;2.20;;;;;;;9.24;100.00;96930.44;5025756;28;20427;-79
2023/11/14 10:40:44;;;;;;;3.45;1.52;;;;;;;9.32;100.00;96943.19;5026374;28;20452;-82
2023/11/14 10:43:11;;;;;;;2.38;1.27;;;;;;;9.30;100.00;96932.06;5024048;28;20500;-83
2023/11/14 10:45:38;;;;;;;2.33;1.40;;;;;;;9.44;100.00;96941.13;5023929;28;20401;-83
2023/11/14 10:48:06;;;;;;;3.42;1.50;;;;;;;9.52;100.00;96947.78;5023843;28;20594;-83
2023/11/14 10:50:34;;;;;;;4.57;1.40;;;;;;;9.51;100.00;96957.56;5024298;28;20420;-82
2023/11/14 10:53:02;;;;;;;4.72;1.42;;;;;;;9.50;100.00;96957.81;5025027;28;20408;-83
2023/11/14 10:55:29;;;;;;;3.15;1.40;;;;;;;9.55;100.00;96973.69;5024746;28;20777;-83
2023/11/14 10:57:55;;;;;;;3.00;1.20;;;;;;;9.56;100.00;96946.22;5025342;28;20459;-84
2023/11/14 11:00:22;;;;;;;3.55;1.52;;;;;;;9.60;100.00;96948.13;5024671;28;20404;-84
2023/11/14 11:02:50;;;;;;;2.60;1.10;;;;;;;9.65;100.00;96940.22;5024779;28;20435;-83
2023/11/14 11:05:20;;;;;;;2.65;1.10;;;;;;;9.73;100.00;96933.66;5026081;28;20411;-84
2023/11/14 11:07:48;;;;;;;3.90;1.38;;;;;;;9.73;100.00;96936.28;5025213;28;20397;-83
2023/11/14 11:10:16;;;;;;;4.88;1.40;;;;;;;9.71;100.00;96925.16;5024671;28;20421;-83
2023/11/14 11:12:46;;;;;;;5.22;1.60;;;;;;;9.74;100.00;96952.94;5023559;28;20405;-83
2023/11/14 11:15:12;;;;;;;3.42;1.25;;;;;;;9.79;100.00;96937.09;5029051;28;20393;-84
2023/11/14 11:17:40;;;;;;;5.80;1.60;;;;;;;9.81;100.00;96924.44;5028518;28;20401;-84
2023/11/14 11:20:08;;;;;;;3.13;1.50;;;;;;;9.92;100.00;96913.63;5033140;28;20409;-84
2023/11/14 11:23:00;;;;;;;4.45;1.25;;;;;;;10.03;100.00;96891.50;5029782;28;20401;-83
2023/11/14 11:25:29;;;;;;;3.58;1.45;;;;;;;10.13;100.00;96874.88;5030014;28;20413;-83